DW9840 Santa Rosa CA US current weather conditions

sailwx.info

Wind from 197 at 3 knots gusting 6

Air temperature 19.4° C
Dewpoint 13.8° C

Last reported at 2019-Aug-21 03:00 UTC.
Time now 2019-Aug-21 03:32 UTC

Location: N 38°25' W 122°42'.
View on Google Maps.

See reports from other nearby stations

  
Tides and Currents Weather Stations Pressure Air Temp Water Temp Dewpoint Dewpoint Depression Visibility Wind Speed Wind Dir Waves Ship Positions
date/time (UTC)wind fromknots sea level pressurealtimeterstation pressurevisibilityair tempwater tempwave heightnotes
2019-Aug-21 03:00 197 3 gusting 6 19.4
2019-Aug-21 02:45 239 20.0
2019-Aug-21 02:30 233 0 gusting 7 20.6
2019-Aug-21 02:16 255 1 gusting 6 20.6
2019-Aug-21 02:01 233 2 gusting 9 20.6
2019-Aug-21 01:47 156 4 gusting 9 20.6
2019-Aug-21 01:31 250 5 gusting 10 21.1
2019-Aug-21 01:16 222 5 gusting 10 21.7
2019-Aug-21 01:02 207 6 gusting 13 21.7
2019-Aug-21 00:45 200 6 gusting 11 22.2
2019-Aug-21 00:31 233 6 gusting 13 22.8
2019-Aug-21 00:15 202 4 gusting 11 22.8
2019-Aug-21 00:00 242 6 gusting 11 22.8
2019-Aug-20 23:45 185 5 gusting 12 23.3
2019-Aug-20 23:30 290 5 gusting 12 24.4
2019-Aug-20 23:15 224 5 gusting 9 24.4
2019-Aug-20 23:02 222 3 gusting 9 24.4
2019-Aug-20 22:46 200 3 gusting 9 25.0
2019-Aug-20 22:33 233 4 gusting 10 25.0
2019-Aug-20 22:18 201 1 gusting 8 25.0
2019-Aug-20 22:01 162 3 gusting 10 25.6
2019-Aug-20 21:45 221 3 gusting 10 25.6
2019-Aug-20 21:31 258 2 gusting 7 26.1
2019-Aug-20 21:15 189 3 gusting 6 26.1
2019-Aug-20 21:00 119 5 gusting 8 26.1
2019-Aug-20 20:45 337 1 gusting 7 25.6
2019-Aug-20 20:31 281 0 gusting 5 25.6
2019-Aug-20 20:15 138 1 gusting 6 25.0
2019-Aug-20 20:00 285 1 gusting 5 23.9
2019-Aug-20 19:45 257 1 gusting 5 22.8
2019-Aug-20 19:32 210 0 gusting 4 22.2
2019-Aug-20 19:16 214 0 gusting 5 21.1
2019-Aug-20 19:01 156 1 gusting 5 20.6
2019-Aug-20 18:46 198 2 gusting 6 20.0
2019-Aug-20 18:31 152 4 gusting 7 19.4
2019-Aug-20 18:15 146 18.9
2019-Aug-20 18:01 242 1 gusting 3 18.3
2019-Aug-20 17:46 239 0 gusting 3 17.8
2019-Aug-20 17:30 177 0 gusting 3 17.8
2019-Aug-20 17:15 285 17.2
2019-Aug-20 17:00 224 0 gusting 3 17.8
2019-Aug-20 16:45 277 17.8
2019-Aug-20 16:30 239 17.8
2019-Aug-20 16:17 207 1 gusting 4 17.8
2019-Aug-20 16:01 204 17.8
2019-Aug-20 15:46 246 17.8
2019-Aug-20 15:31 204 17.2
2019-Aug-20 15:17 236 17.2
2019-Aug-20 15:01 197 17.2
2019-Aug-20 14:45 242 16.7
2019-Aug-20 14:30
2019-Aug-20 14:16
2019-Aug-20 14:00
2019-Aug-20 13:45
2019-Aug-20 13:30
2019-Aug-20 13:15
2019-Aug-20 13:02
2019-Aug-20 12:47
2019-Aug-20 12:31
2019-Aug-20 12:16
2019-Aug-20 12:01
2019-Aug-20 11:46
2019-Aug-20 11:31
2019-Aug-20 11:16 214 17.2
2019-Aug-20 11:00 234 17.2
2019-Aug-20 10:46 252 17.2
2019-Aug-20 10:30 091 17.2
2019-Aug-20 10:15 132 17.2
2019-Aug-20 10:00 089 17.2
2019-Aug-20 09:45 134 17.2
2019-Aug-20 09:30 332 17.2
2019-Aug-20 09:17 012 17.2
2019-Aug-20 09:01 091 17.2
2019-Aug-20 08:46 226 0 gusting 4 17.2
2019-Aug-20 08:31 167 17.2
2019-Aug-20 08:17 227 0 gusting 4 17.2
2019-Aug-20 08:01 226 17.2
2019-Aug-20 07:45 205 3 gusting 6 17.2
2019-Aug-20 07:30 253 1 gusting 5 17.2
2019-Aug-20 07:16 235 1 gusting 6 17.2
2019-Aug-20 07:01 229 16.7
2019-Aug-20 06:45 146 1 gusting 4 16.7
2019-Aug-20 06:30 233 0 gusting 4 16.7
2019-Aug-20 06:15 235 0 gusting 3 16.7
2019-Aug-20 06:01 226 16.7
2019-Aug-20 05:47 201 2 gusting 6 16.7
2019-Aug-20 05:31 207 1 gusting 6 16.7
2019-Aug-20 05:16 205 2 gusting 6 16.7
2019-Aug-20 05:01 224 0 gusting 2 16.1
2019-Aug-20 04:45 221 0 gusting 3 16.7
2019-Aug-20 04:31 208 1 gusting 6 16.7
2019-Aug-20 04:15 275 1 gusting 6 16.7
2019-Aug-20 04:00 274 1 gusting 5 16.7
2019-Aug-20 03:45 198 16.7
2019-Aug-20 03:30 162 16.7
2019-Aug-20 03:15 235 0 gusting 7 17.2
2019-Aug-20 03:00 219 3 gusting 6 17.2
2019-Aug-20 02:46 184 3 gusting 8 17.8
2019-Aug-20 02:33 203 4 gusting 7 18.3
2019-Aug-20 02:16 221 3 gusting 9 18.3
2019-Aug-20 02:02 219 4 gusting 11 18.9
2019-Aug-20 01:46 211 5 gusting 9 18.9
2019-Aug-20 01:31 217 4 gusting 11 19.4
2019-Aug-20 01:16 311 2 gusting 9 20.6
2019-Aug-20 01:01 203 4 gusting 8 21.1
2019-Aug-20 00:45 200 4 gusting 10 21.7
2019-Aug-20 00:31 195 6 gusting 9 22.2
2019-Aug-20 00:16 180 3 gusting 8 22.8
2019-Aug-20 00:00 288 2 gusting 8 23.3
2019-Aug-19 23:45 214 3 gusting 6 23.3
2019-Aug-19 23:30 236 3 gusting 10 23.9
2019-Aug-19 23:16 170 2 gusting 7 24.4
2019-Aug-19 23:01 223 4 gusting 6 25.0
2019-Aug-19 22:46 217 3 gusting 8 25.0
2019-Aug-19 22:32 194 2 gusting 9 25.6
2019-Aug-19 22:15 190 3 gusting 6 26.1
2019-Aug-19 22:01 152 1 gusting 6 26.1
2019-Aug-19 21:46 246 3 gusting 6 27.2
2019-Aug-19 21:30 173 3 gusting 7 26.1
2019-Aug-19 21:16 207 2 gusting 7 26.1
2019-Aug-19 21:01 181 1 gusting 5 25.6
2019-Aug-19 20:45 245 24.4
2019-Aug-19 20:30 260 1 gusting 4 24.4
2019-Aug-19 20:15 347 23.9
2019-Aug-19 20:02 291 0 gusting 4 23.3
2019-Aug-19 19:48 283 22.2
2019-Aug-19 19:31 252 0 gusting 4 21.7
2019-Aug-19 19:16 233 0 gusting 3 21.1
2019-Aug-19 19:01 339 0 gusting 2 20.6
2019-Aug-19 18:45 296 0 gusting 5 20.6
2019-Aug-19 18:31 252 0 gusting 4 20.0
2019-Aug-19 18:15 225 1 gusting 5 18.3
2019-Aug-19 18:00 298 1 gusting 4 17.8
2019-Aug-19 17:45 187 17.8
2019-Aug-19 17:30 174 1 gusting 3 17.2
2019-Aug-19 17:15 289 0 gusting 4 16.7
2019-Aug-19 17:00 186 16.7
2019-Aug-19 16:45 231 0 gusting 3 16.7
2019-Aug-19 16:31 221 16.7
2019-Aug-19 16:16 226 16.7
2019-Aug-19 16:02 200 16.7
2019-Aug-19 15:46 201 1 gusting 3 16.7
2019-Aug-19 15:31 211 16.7
2019-Aug-19 15:15 141 16.7
2019-Aug-19 15:01
2019-Aug-19 14:46
2019-Aug-19 14:30
2019-Aug-19 14:15
2019-Aug-19 14:00
2019-Aug-19 13:46
2019-Aug-19 13:30
2019-Aug-19 13:17
2019-Aug-19 13:01
2019-Aug-19 12:46
2019-Aug-19 12:32
2019-Aug-19 12:18
2019-Aug-19 12:01
2019-Aug-19 11:46
2019-Aug-19 11:30
2019-Aug-19 11:16 195 16.1
2019-Aug-19 11:00 221 16.1
2019-Aug-19 10:45 130 0 gusting 3 16.1
2019-Aug-19 10:30 131 16.1
2019-Aug-19 10:15 239 16.1
2019-Aug-19 10:01 240 0 gusting 3 16.1
2019-Aug-19 09:47 235 16.1
2019-Aug-19 09:31 158 0 gusting 2 16.1
2019-Aug-19 09:17 214 1 gusting 4 16.1
2019-Aug-19 09:01 217 1 gusting 2 16.1
2019-Aug-19 08:46 250 16.1
2019-Aug-19 08:31 225 16.1
2019-Aug-19 08:15 214 16.1
2019-Aug-19 08:00 222 0 gusting 3 16.1
2019-Aug-19 07:45 238 0 gusting 2 16.1
2019-Aug-19 07:30 231 1 gusting 5 16.1
2019-Aug-19 07:15 190 16.1
2019-Aug-19 07:00 291 0 gusting 4 16.1
2019-Aug-19 06:45 239 1 gusting 5 16.1
2019-Aug-19 06:30 221 1 gusting 5 16.1
2019-Aug-19 06:16 217 0 16.1
2019-Aug-19 06:01 211 16.1
2019-Aug-19 05:46 215 1 gusting 4 16.1
2019-Aug-19 05:32 275 16.1
2019-Aug-19 05:16 169 1 gusting 3 16.1
2019-Aug-19 05:01 194 1 gusting 4 16.1
2019-Aug-19 04:46 179 2 gusting 5 16.1
2019-Aug-19 04:30 221 16.1
2019-Aug-19 04:16 259 1 gusting 5 16.1
2019-Aug-19 04:00 205 0 gusting 5 15.6
2019-Aug-19 03:45 176 2 gusting 5 16.1
2019-Aug-19 03:30 229 2 gusting 6 16.1
2019-Aug-19 03:15 190 2 gusting 6 16.7
2019-Aug-19 03:00 216 3 gusting 7 16.7